sensor_id;sensor_type;location;lat;lon;timestamp;temperature;humidity
33023;DHT22;19390;51.460;5.710;2022-12-01T00:01:31;6.10;99.90
33023;DHT22;19390;51.460;5.710;2022-12-01T00:03:56;6.00;99.90
33023;DHT22;19390;51.460;5.710;2022-12-01T00:06:22;6.00;99.90
33023;DHT22;19390;51.460;5.710;2022-12-01T00:08:50;6.00;99.90
33023;DHT22;19390;51.460;5.710;2022-12-01T00:11:36;6.00;99.90
33023;DHT22;19390;51.460;5.710;2022-12-01T00:14:02;6.10;99.90
33023;DHT22;19390;51.460;5.710;2022-12-01T00:16:29;6.00;99.90
33023;DHT22;19390;51.460;5.710;2022-12-01T00:18:55;6.00;99.90
33023;DHT22;19390;51.460;5.710;2022-12-01T00:21:22;6.00;99.90
33023;DHT22;19390;51.460;5.710;2022-12-01T00:23:50;6.00;99.90
33023;DHT22;19390;51.460;5.710;2022-12-01T00:26:17;6.00;99.90
33023;DHT22;19390;51.460;5.710;2022-12-01T00:28:50;6.10;99.90
33023;DHT22;19390;51.460;5.710;2022-12-01T00:31:15;6.10;99.90
33023;DHT22;19390;51.460;5.710;2022-12-01T00:33:41;6.00;99.90
33023;DHT22;19390;51.460;5.710;2022-12-01T00:36:07;6.00;99.90
33023;DHT22;19390;51.460;5.710;2022-12-01T00:38:33;6.00;99.90
33023;DHT22;19390;51.460;5.710;2022-12-01T00:40:59;6.00;99.90
33023;DHT22;19390;51.460;5.710;2022-12-01T00:43:24;6.10;99.90
33023;DHT22;19390;51.460;5.710;2022-12-01T00:45:50;6.00;99.90
33023;DHT22;19390;51.460;5.710;2022-12-01T00:48:16;6.10;99.90
33023;DHT22;19390;51.460;5.710;2022-12-01T00:50:42;6.00;99.90
33023;DHT22;19390;51.460;5.710;2022-12-01T00:53:08;6.00;99.90
33023;DHT22;19390;51.460;5.710;2022-12-01T00:55:33;6.00;99.90
33023;DHT22;19390;51.460;5.710;2022-12-01T00:57:59;6.00;99.90
33023;DHT22;19390;51.460;5.710;2022-12-01T01:00:24;6.00;99.90
33023;DHT22;19390;51.460;5.710;2022-12-01T01:02:50;6.00;99.90
33023;DHT22;19390;51.460;5.710;2022-12-01T01:05:16;6.00;99.90
33023;DHT22;19390;51.460;5.710;2022-12-01T01:07:42;6.00;99.90
33023;DHT22;19390;51.460;5.710;2022-12-01T01:10:08;5.90;99.90
33023;DHT22;19390;51.460;5.710;2022-12-01T01:12:33;6.00;99.90
33023;DHT22;19390;51.460;5.710;2022-12-01T01:14:59;6.00;99.90
33023;DHT22;19390;51.460;5.710;2022-12-01T01:17:25;6.00;99.90
33023;DHT22;19390;51.460;5.710;2022-12-01T01:19:52;6.00;99.90
33023;DHT22;19390;51.460;5.710;2022-12-01T01:22:18;5.90;99.90
33023;DHT22;19390;51.460;5.710;2022-12-01T01:24:43;6.00;99.90
33023;DHT22;19390;51.460;5.710;2022-12-01T01:27:09;6.00;99.90
33023;DHT22;19390;51.460;5.710;2022-12-01T01:29:35;6.00;99.90
33023;DHT22;19390;51.460;5.710;2022-12-01T01:32:00;6.00;99.90
33023;DHT22;19390;51.460;5.710;2022-12-01T01:34:26;6.00;99.90
33023;DHT22;19390;51.460;5.710;2022-12-01T01:36:52;6.00;99.90
33023;DHT22;19390;51.460;5.710;2022-12-01T01:39:17;6.00;99.90
33023;DHT22;19390;51.460;5.710;2022-12-01T01:41:43;6.00;99.90
33023;DHT22;19390;51.460;5.710;2022-12-01T01:47:35;5.90;99.90
33023;DHT22;19390;51.460;5.710;2022-12-01T01:50:09;6.00;99.90
33023;DHT22;19390;51.460;5.710;2022-12-01T01:52:38;5.90;99.90
33023;DHT22;19390;51.460;5.710;2022-12-01T01:55:06;5.90;99.90
33023;DHT22;19390;51.460;5.710;2022-12-01T01:57:33;5.90;99.90
33023;DHT22;19390;51.460;5.710;2022-12-01T02:00:10;6.00;99.90
33023;DHT22;19390;51.460;5.710;2022-12-01T02:02:37;6.00;99.90
33023;DHT22;19390;51.460;5.710;2022-12-01T02:05:06;5.90;99.90
33023;DHT22;19390;51.460;5.710;2022-12-01T02:07:36;6.00;99.90
33023;DHT22;19390;51.460;5.710;2022-12-01T02:10:04;6.00;99.90
33023;DHT22;19390;51.460;5.710;2022-12-01T02:15:20;6.00;99.90
33023;DHT22;19390;51.460;5.710;2022-12-01T02:18:44;6.00;99.90
33023;DHT22;19390;51.460;5.710;2022-12-01T02:27:00;5.90;99.90
33023;DHT22;19390;51.460;5.710;2022-12-01T02:32:46;5.90;99.90
33023;DHT22;19390;51.460;5.710;2022-12-01T02:35:38;6.00;99.90
33023;DHT22;19390;51.460;5.710;2022-12-01T02:38:18;6.00;99.90
33023;DHT22;19390;51.460;5.710;2022-12-01T02:43:26;6.00;99.90
33023;DHT22;19390;51.460;5.710;2022-12-01T02:46:02;6.00;99.90
33023;DHT22;19390;51.460;5.710;2022-12-01T02:48:58;6.00;99.90
33023;DHT22;19390;51.460;5.710;2022-12-01T02:51:33;6.10;99.90
33023;DHT22;19390;51.460;5.710;2022-12-01T03:42:08;6.10;99.90
33023;DHT22;19390;51.460;5.710;2022-12-01T03:44:47;6.00;99.90
33023;DHT22;19390;51.460;5.710;2022-12-01T03:47:23;6.10;99.90
33023;DHT22;19390;51.460;5.710;2022-12-01T03:49:51;6.10;99.90
33023;DHT22;19390;51.460;5.710;2022-12-01T03:55:18;6.10;99.90
33023;DHT22;19390;51.460;5.710;2022-12-01T04:00:21;6.10;99.90
33023;DHT22;19390;51.460;5.710;2022-12-01T04:02:47;6.10;99.90
33023;DHT22;19390;51.460;5.710;2022-12-01T04:05:18;6.10;99.90
33023;DHT22;19390;51.460;5.710;2022-12-01T04:07:43;6.10;99.90
33023;DHT22;19390;51.460;5.710;2022-12-01T04:10:09;6.10;99.90
33023;DHT22;19390;51.460;5.710;2022-12-01T04:12:35;6.10;99.90
33023;DHT22;19390;51.460;5.710;2022-12-01T04:15:09;6.10;99.90
33023;DHT22;19390;51.460;5.710;2022-12-01T04:17:40;6.10;99.90
33023;DHT22;19390;51.460;5.710;2022-12-01T04:20:12;6.10;99.90
33023;DHT22;19390;51.460;5.710;2022-12-01T04:22:38;6.10;99.90
33023;DHT22;19390;51.460;5.710;2022-12-01T04:25:05;6.10;99.90
33023;DHT22;19390;51.460;5.710;2022-12-01T04:27:31;6.10;99.90
33023;DHT22;19390;51.460;5.710;2022-12-01T04:29:57;6.10;99.90
33023;DHT22;19390;51.460;5.710;2022-12-01T04:32:23;6.10;99.90
33023;DHT22;19390;51.460;5.710;2022-12-01T04:34:48;6.10;99.90
33023;DHT22;19390;51.460;5.710;2022-12-01T04:37:14;6.10;99.90
33023;DHT22;19390;51.460;5.710;2022-12-01T04:39:40;6.10;99.90
33023;DHT22;19390;51.460;5.710;2022-12-01T04:42:07;6.10;99.90
33023;DHT22;19390;51.460;5.710;2022-12-01T04:44:33;6.00;99.90
33023;DHT22;19390;51.460;5.710;2022-12-01T04:46:58;6.10;99.90
33023;DHT22;19390;51.460;5.710;2022-12-01T04:49:24;6.10;99.90
33023;DHT22;19390;51.460;5.710;2022-12-01T04:51:50;6.10;99.90
33023;DHT22;19390;51.460;5.710;2022-12-01T04:54:16;6.00;99.90
33023;DHT22;19390;51.460;5.710;2022-12-01T04:56:42;6.10;99.90
33023;DHT22;19390;51.460;5.710;2022-12-01T04:59:08;6.10;99.90
33023;DHT22;19390;51.460;5.710;2022-12-01T05:01:34;6.10;99.90
33023;DHT22;19390;51.460;5.710;2022-12-01T05:04:00;6.00;99.90
33023;DHT22;19390;51.460;5.710;2022-12-01T05:06:27;6.00;99.90
33023;DHT22;19390;51.460;5.710;2022-12-01T05:08:55;6.10;99.90
33023;DHT22;19390;51.460;5.710;2022-12-01T05:11:21;6.00;99.90
33023;DHT22;19390;51.460;5.710;2022-12-01T05:13:48;6.00;99.90
33023;DHT22;19390;51.460;5.710;2022-12-01T05:16:20;6.00;99.90
33023;DHT22;19390;51.460;5.710;2022-12-01T05:18:50;6.00;99.90
33023;DHT22;19390;51.460;5.710;2022-12-01T05:21:16;6.00;99.90
33023;DHT22;19390;51.460;5.710;2022-12-01T05:23:42;6.00;99.90
33023;DHT22;19390;51.460;5.710;2022-12-01T05:26:09;6.00;99.90
33023;DHT22;19390;51.460;5.710;2022-12-01T05:28:35;6.00;99.90
33023;DHT22;19390;51.460;5.710;2022-12-01T05:31:01;6.00;99.90
33023;DHT22;19390;51.460;5.710;2022-12-01T05:33:28;6.00;99.90
33023;DHT22;19390;51.460;5.710;2022-12-01T05:35:54;6.00;99.90
33023;DHT22;19390;51.460;5.710;2022-12-01T05:38:20;6.00;99.90
33023;DHT22;19390;51.460;5.710;2022-12-01T05:40:52;6.00;99.90
33023;DHT22;19390;51.460;5.710;2022-12-01T05:43:20;5.90;99.90
33023;DHT22;19390;51.460;5.710;2022-12-01T05:45:46;5.90;99.90
33023;DHT22;19390;51.460;5.710;2022-12-01T05:48:14;5.90;99.90
33023;DHT22;19390;51.460;5.710;2022-12-01T05:50:39;5.90;99.90
33023;DHT22;19390;51.460;5.710;2022-12-01T05:53:06;5.90;99.90
33023;DHT22;19390;51.460;5.710;2022-12-01T05:55:34;5.90;99.90
33023;DHT22;19390;51.460;5.710;2022-12-01T05:58:01;5.90;99.90
33023;DHT22;19390;51.460;5.710;2022-12-01T06:00:26;5.90;99.90
33023;DHT22;19390;51.460;5.710;2022-12-01T06:02:52;5.90;99.90
33023;DHT22;19390;51.460;5.710;2022-12-01T06:05:18;5.90;99.90
33023;DHT22;19390;51.460;5.710;2022-12-01T06:07:43;5.90;99.90
33023;DHT22;19390;51.460;5.710;2022-12-01T06:10:10;5.90;99.90
33023;DHT22;19390;51.460;5.710;2022-12-01T06:12:36;5.90;99.90
33023;DHT22;19390;51.460;5.710;2022-12-01T06:15:02;5.90;99.90
33023;DHT22;19390;51.460;5.710;2022-12-01T06:17:28;5.90;99.90
33023;DHT22;19390;51.460;5.710;2022-12-01T06:19:54;5.90;99.90
33023;DHT22;19390;51.460;5.710;2022-12-01T06:22:19;5.80;99.90
33023;DHT22;19390;51.460;5.710;2022-12-01T06:24:51;5.80;99.90
33023;DHT22;19390;51.460;5.710;2022-12-01T06:27:17;5.80;99.90
33023;DHT22;19390;51.460;5.710;2022-12-01T06:29:43;5.80;99.90
33023;DHT22;19390;51.460;5.710;2022-12-01T06:32:08;5.80;99.90
33023;DHT22;19390;51.460;5.710;2022-12-01T06:34:34;5.80;99.90
33023;DHT22;19390;51.460;5.710;2022-12-01T06:37:00;5.80;99.90
33023;DHT22;19390;51.460;5.710;2022-12-01T06:39:25;5.70;99.90
33023;DHT22;19390;51.460;5.710;2022-12-01T06:41:51;5.70;99.90
33023;DHT22;19390;51.460;5.710;2022-12-01T06:44:16;5.70;99.90
33023;DHT22;19390;51.460;5.710;2022-12-01T06:46:42;5.70;99.90
33023;DHT22;19390;51.460;5.710;2022-12-01T06:49:11;5.70;99.90
33023;DHT22;19390;51.460;5.710;2022-12-01T06:51:38;5.80;99.90
33023;DHT22;19390;51.460;5.710;2022-12-01T06:54:04;5.80;99.90
33023;DHT22;19390;51.460;5.710;2022-12-01T06:56:29;5.80;99.90
33023;DHT22;19390;51.460;5.710;2022-12-01T06:58:55;5.80;99.90
33023;DHT22;19390;51.460;5.710;2022-12-01T07:01:21;5.80;99.90
33023;DHT22;19390;51.460;5.710;2022-12-01T07:03:48;5.80;99.90
33023;DHT22;19390;51.460;5.710;2022-12-01T07:06:14;5.80;99.90
33023;DHT22;19390;51.460;5.710;2022-12-01T07:08:40;5.80;99.90
33023;DHT22;19390;51.460;5.710;2022-12-01T07:11:08;5.80;99.90
33023;DHT22;19390;51.460;5.710;2022-12-01T07:13:34;5.80;99.90
33023;DHT22;19390;51.460;5.710;2022-12-01T07:16:03;5.80;99.90
33023;DHT22;19390;51.460;5.710;2022-12-01T07:18:30;5.80;99.90
33023;DHT22;19390;51.460;5.710;2022-12-01T07:21:00;5.80;99.90
33023;DHT22;19390;51.460;5.710;2022-12-01T07:23:26;5.80;99.90
33023;DHT22;19390;51.460;5.710;2022-12-01T07:28:28;5.80;99.90
33023;DHT22;19390;51.460;5.710;2022-12-01T07:31:03;5.80;99.90
33023;DHT22;19390;51.460;5.710;2022-12-01T07:33:29;5.80;99.90
33023;DHT22;19390;51.460;5.710;2022-12-01T07:35:55;5.80;99.90
33023;DHT22;19390;51.460;5.710;2022-12-01T07:38:20;5.80;99.90
33023;DHT22;19390;51.460;5.710;2022-12-01T07:40:46;5.80;99.90
33023;DHT22;19390;51.460;5.710;2022-12-01T07:43:12;5.80;99.90
33023;DHT22;19390;51.460;5.710;2022-12-01T07:45:37;5.80;99.90
33023;DHT22;19390;51.460;5.710;2022-12-01T07:48:03;5.80;99.90
33023;DHT22;19390;51.460;5.710;2022-12-01T07:50:29;5.70;99.90
33023;DHT22;19390;51.460;5.710;2022-12-01T07:52:54;5.70;99.90
33023;DHT22;19390;51.460;5.710;2022-12-01T07:55:20;5.70;99.90
33023;DHT22;19390;51.460;5.710;2022-12-01T07:57:46;5.80;99.90
33023;DHT22;19390;51.460;5.710;2022-12-01T08:00:12;5.80;99.90
33023;DHT22;19390;51.460;5.710;2022-12-01T08:02:38;5.80;99.90
33023;DHT22;19390;51.460;5.710;2022-12-01T08:05:03;5.80;99.90
33023;DHT22;19390;51.460;5.710;2022-12-01T08:07:29;5.80;99.90
33023;DHT22;19390;51.460;5.710;2022-12-01T08:09:55;5.90;99.90
33023;DHT22;19390;51.460;5.710;2022-12-01T08:12:40;5.80;99.90
33023;DHT22;19390;51.460;5.710;2022-12-01T08:15:13;5.90;99.90
33023;DHT22;19390;51.460;5.710;2022-12-01T08:17:39;5.90;99.90
33023;DHT22;19390;51.460;5.710;2022-12-01T08:20:21;5.90;99.90
33023;DHT22;19390;51.460;5.710;2022-12-01T08:43:55;6.00;99.90
33023;DHT22;19390;51.460;5.710;2022-12-01T08:46:23;6.00;99.90
33023;DHT22;19390;51.460;5.710;2022-12-01T08:48:49;6.00;99.90
33023;DHT22;19390;51.460;5.710;2022-12-01T08:51:17;6.00;99.90
33023;DHT22;19390;51.460;5.710;2022-12-01T08:53:46;6.10;99.90
33023;DHT22;19390;51.460;5.710;2022-12-01T08:56:18;6.30;99.90
33023;DHT22;19390;51.460;5.710;2022-12-01T08:58:45;6.40;99.90
33023;DHT22;19390;51.460;5.710;2022-12-01T09:01:13;6.50;99.90
33023;DHT22;19390;51.460;5.710;2022-12-01T09:03:39;6.40;99.90
33023;DHT22;19390;51.460;5.710;2022-12-01T09:06:23;6.30;99.90
33023;DHT22;19390;51.460;5.710;2022-12-01T09:08:48;6.20;99.90
33023;DHT22;19390;51.460;5.710;2022-12-01T09:11:16;6.50;99.90
33023;DHT22;19390;51.460;5.710;2022-12-01T09:13:43;6.90;99.90
33023;DHT22;19390;51.460;5.710;2022-12-01T09:16:11;7.30;99.90
33023;DHT22;19390;51.460;5.710;2022-12-01T09:18:37;7.20;99.90
33023;DHT22;19390;51.460;5.710;2022-12-01T09:21:18;7.30;99.90
33023;DHT22;19390;51.460;5.710;2022-12-01T09:23:44;7.40;99.90
33023;DHT22;19390;51.460;5.710;2022-12-01T09:26:10;7.50;99.90
33023;DHT22;19390;51.460;5.710;2022-12-01T09:28:36;7.60;99.90
33023;DHT22;19390;51.460;5.710;2022-12-01T09:31:10;7.70;99.90
33023;DHT22;19390;51.460;5.710;2022-12-01T09:33:36;7.60;99.90
33023;DHT22;19390;51.460;5.710;2022-12-01T09:36:03;7.70;99.90
33023;DHT22;19390;51.460;5.710;2022-12-01T09:38:30;7.50;99.90
33023;DHT22;19390;51.460;5.710;2022-12-01T09:40:58;7.90;99.90
33023;DHT22;19390;51.460;5.710;2022-12-01T09:43:28;8.10;99.90
33023;DHT22;19390;51.460;5.710;2022-12-01T09:45:58;7.70;99.90
33023;DHT22;19390;51.460;5.710;2022-12-01T09:48:46;7.40;99.90
33023;DHT22;19390;51.460;5.710;2022-12-01T09:51:17;7.30;99.90
33023;DHT22;19390;51.460;5.710;2022-12-01T09:53:44;7.40;99.90
33023;DHT22;19390;51.460;5.710;2022-12-01T09:56:20;7.40;99.90
33023;DHT22;19390;51.460;5.710;2022-12-01T09:58:49;7.30;99.90
33023;DHT22;19390;51.460;5.710;2022-12-01T10:01:18;7.40;99.90
33023;DHT22;19390;51.460;5.710;2022-12-01T10:03:48;7.50;99.90
33023;DHT22;19390;51.460;5.710;2022-12-01T10:06:32;7.60;99.90
33023;DHT22;19390;51.460;5.710;2022-12-01T10:11:47;7.70;99.90
33023;DHT22;19390;51.460;5.710;2022-12-01T10:14:17;7.60;99.90
33023;DHT22;19390;51.460;5.710;2022-12-01T10:16:52;7.80;99.90
33023;DHT22;19390;51.460;5.710;2022-12-01T10:22:26;7.30;99.90
33023;DHT22;19390;51.460;5.710;2022-12-01T10:24:54;7.20;99.90
33023;DHT22;19390;51.460;5.710;2022-12-01T10:30:17;7.00;99.90
33023;DHT22;19390;51.460;5.710;2022-12-01T10:33:12;7.10;99.90
33023;DHT22;19390;51.460;5.710;2022-12-01T10:35:46;7.10;99.90
33023;DHT22;19390;51.460;5.710;2022-12-01T10:38:18;7.00;99.90
33023;DHT22;19390;51.460;5.710;2022-12-01T11:27:25;7.50;99.90
33023;DHT22;19390;51.460;5.710;2022-12-01T11:29:55;7.30;99.90
33023;DHT22;19390;51.460;5.710;2022-12-01T11:32:27;7.20;99.90
33023;DHT22;19390;51.460;5.710;2022-12-01T11:35:00;7.40;99.90
33023;DHT22;19390;51.460;5.710;2022-12-01T11:37:32;7.50;99.90
33023;DHT22;19390;51.460;5.710;2022-12-01T11:40:25;7.40;99.90
33023;DHT22;19390;51.460;5.710;2022-12-01T11:43:04;7.30;99.90
33023;DHT22;19390;51.460;5.710;2022-12-01T11:45:33;7.30;99.90
33023;DHT22;19390;51.460;5.710;2022-12-01T11:51:07;7.40;99.90
33023;DHT22;19390;51.460;5.710;2022-12-01T11:53:40;7.30;99.90
33023;DHT22;19390;51.460;5.710;2022-12-01T11:56:23;7.40;99.90
33023;DHT22;19390;51.460;5.710;2022-12-01T11:59:03;7.50;99.90
33023;DHT22;19390;51.460;5.710;2022-12-01T12:07:15;7.50;99.90
33023;DHT22;19390;51.460;5.710;2022-12-01T12:18:56;7.90;99.90
33023;DHT22;19390;51.460;5.710;2022-12-01T12:24:44;7.80;99.90
33023;DHT22;19390;51.460;5.710;2022-12-01T12:27:36;7.80;99.90
33023;DHT22;19390;51.460;5.710;2022-12-01T12:30:22;8.00;99.90
33023;DHT22;19390;51.460;5.710;2022-12-01T12:49:42;7.30;99.90
33023;DHT22;19390;51.460;5.710;2022-12-01T12:52:16;7.40;99.90
33023;DHT22;19390;51.460;5.710;2022-12-01T12:54:53;7.40;99.90
33023;DHT22;19390;51.460;5.710;2022-12-01T12:57:36;7.40;99.90
33023;DHT22;19390;51.460;5.710;2022-12-01T13:00:19;7.40;99.90
33023;DHT22;19390;51.460;5.710;2022-12-01T13:02:50;7.40;99.90
33023;DHT22;19390;51.460;5.710;2022-12-01T13:05:58;7.50;99.90
33023;DHT22;19390;51.460;5.710;2022-12-01T13:08:41;7.40;99.90
33023;DHT22;19390;51.460;5.710;2022-12-01T13:11:31;7.30;99.90
33023;DHT22;19390;51.460;5.710;2022-12-01T13:19:52;7.20;99.90
33023;DHT22;19390;51.460;5.710;2022-12-01T13:22:21;7.10;99.90
33023;DHT22;19390;51.460;5.710;2022-12-01T13:24:48;7.10;99.90
33023;DHT22;19390;51.460;5.710;2022-12-01T13:27:21;7.20;99.90
33023;DHT22;19390;51.460;5.710;2022-12-01T13:29:49;7.10;99.90
33023;DHT22;19390;51.460;5.710;2022-12-01T13:32:36;7.20;99.90
33023;DHT22;19390;51.460;5.710;2022-12-01T13:35:27;7.10;99.90
33023;DHT22;19390;51.460;5.710;2022-12-01T13:40:45;7.10;99.90
33023;DHT22;19390;51.460;5.710;2022-12-01T13:43:22;7.10;99.90
33023;DHT22;19390;51.460;5.710;2022-12-01T13:45:48;7.00;99.90
33023;DHT22;19390;51.460;5.710;2022-12-01T13:48:28;7.00;99.90
33023;DHT22;19390;51.460;5.710;2022-12-01T13:51:13;7.00;99.90
33023;DHT22;19390;51.460;5.710;2022-12-01T13:53:56;6.90;99.90
33023;DHT22;19390;51.460;5.710;2022-12-01T13:56:25;6.90;99.90
33023;DHT22;19390;51.460;5.710;2022-12-01T13:58:53;7.00;99.90
33023;DHT22;19390;51.460;5.710;2022-12-01T14:03:55;7.00;99.90
33023;DHT22;19390;51.460;5.710;2022-12-01T14:08:58;6.90;99.90
33023;DHT22;19390;51.460;5.710;2022-12-01T14:11:26;6.90;99.90
33023;DHT22;19390;51.460;5.710;2022-12-01T14:13:59;6.90;99.90
33023;DHT22;19390;51.460;5.710;2022-12-01T14:21:50;6.80;99.90
33023;DHT22;19390;51.460;5.710;2022-12-01T14:24:29;6.80;99.90
33023;DHT22;19390;51.460;5.710;2022-12-01T14:26:56;6.70;99.90
33023;DHT22;19390;51.460;5.710;2022-12-01T14:29:35;6.70;99.90
33023;DHT22;19390;51.460;5.710;2022-12-01T14:34:34;6.60;99.90
33023;DHT22;19390;51.460;5.710;2022-12-01T14:37:19;6.70;99.90
33023;DHT22;19390;51.460;5.710;2022-12-01T14:39:54;6.60;99.90
33023;DHT22;19390;51.460;5.710;2022-12-01T14:42:37;6.60;99.90
33023;DHT22;19390;51.460;5.710;2022-12-01T14:45:44;6.60;99.90
33023;DHT22;19390;51.460;5.710;2022-12-01T14:48:18;6.60;99.90
33023;DHT22;19390;51.460;5.710;2022-12-01T14:50:54;6.60;99.90
33023;DHT22;19390;51.460;5.710;2022-12-01T14:53:26;6.50;99.90
33023;DHT22;19390;51.460;5.710;2022-12-01T14:56:00;6.50;99.90
33023;DHT22;19390;51.460;5.710;2022-12-01T14:58:29;6.50;99.90
33023;DHT22;19390;51.460;5.710;2022-12-01T15:01:08;6.50;99.90
33023;DHT22;19390;51.460;5.710;2022-12-01T15:03:44;6.40;99.90
33023;DHT22;19390;51.460;5.710;2022-12-01T15:06:16;6.40;99.90
33023;DHT22;19390;51.460;5.710;2022-12-01T15:08:43;6.40;99.90
33023;DHT22;19390;51.460;5.710;2022-12-01T15:11:23;6.40;99.90
33023;DHT22;19390;51.460;5.710;2022-12-01T15:13:52;6.40;99.90
33023;DHT22;19390;51.460;5.710;2022-12-01T15:16:21;6.40;99.90
33023;DHT22;19390;51.460;5.710;2022-12-01T15:18:47;6.40;99.90
33023;DHT22;19390;51.460;5.710;2022-12-01T15:21:22;6.40;99.90
33023;DHT22;19390;51.460;5.710;2022-12-01T15:23:58;6.30;99.90
33023;DHT22;19390;51.460;5.710;2022-12-01T15:26:36;6.30;99.90
33023;DHT22;19390;51.460;5.710;2022-12-01T15:29:24;6.30;99.90
33023;DHT22;19390;51.460;5.710;2022-12-01T15:31:53;6.40;99.90
33023;DHT22;19390;51.460;5.710;2022-12-01T15:34:22;6.30;99.90
33023;DHT22;19390;51.460;5.710;2022-12-01T15:36:50;6.30;99.90
33023;DHT22;19390;51.460;5.710;2022-12-01T15:39:18;6.30;99.90
33023;DHT22;19390;51.460;5.710;2022-12-01T15:41:48;6.20;99.90
33023;DHT22;19390;51.460;5.710;2022-12-01T15:44:19;6.30;99.90
33023;DHT22;19390;51.460;5.710;2022-12-01T15:46:45;6.20;99.90
33023;DHT22;19390;51.460;5.710;2022-12-01T15:49:23;6.20;99.90
33023;DHT22;19390;51.460;5.710;2022-12-01T15:51:51;6.10;99.90
33023;DHT22;19390;51.460;5.710;2022-12-01T15:54:23;6.20;99.90
33023;DHT22;19390;51.460;5.710;2022-12-01T15:56:54;6.10;99.90
33023;DHT22;19390;51.460;5.710;2022-12-01T15:59:37;6.10;99.90
33023;DHT22;19390;51.460;5.710;2022-12-01T16:04:45;6.10;99.90
33023;DHT22;19390;51.460;5.710;2022-12-01T16:07:12;6.10;99.90
33023;DHT22;19390;51.460;5.710;2022-12-01T16:14:30;6.70;99.90
33023;DHT22;19390;51.460;5.710;2022-12-01T16:16:57;6.70;99.90
33023;DHT22;19390;51.460;5.710;2022-12-01T16:19:31;6.60;99.90
33023;DHT22;19390;51.460;5.710;2022-12-01T16:24:52;6.60;99.90
33023;DHT22;19390;51.460;5.710;2022-12-01T16:27:29;6.60;99.90
33023;DHT22;19390;51.460;5.710;2022-12-01T16:29:58;6.60;99.90
33023;DHT22;19390;51.460;5.710;2022-12-01T16:34:55;6.80;99.90
33023;DHT22;19390;51.460;5.710;2022-12-01T16:37:21;6.40;99.90
33023;DHT22;19390;51.460;5.710;2022-12-01T16:39:48;6.80;99.90
33023;DHT22;19390;51.460;5.710;2022-12-01T16:42:16;7.00;99.90
33023;DHT22;19390;51.460;5.710;2022-12-01T16:44:43;7.10;99.90
33023;DHT22;19390;51.460;5.710;2022-12-01T16:47:24;6.80;99.90
33023;DHT22;19390;51.460;5.710;2022-12-01T16:49:50;6.70;99.90
33023;DHT22;19390;51.460;5.710;2022-12-01T16:52:17;6.30;99.90
33023;DHT22;19390;51.460;5.710;2022-12-01T16:54:42;6.30;99.90
33023;DHT22;19390;51.460;5.710;2022-12-01T16:57:08;6.50;99.90
33023;DHT22;19390;51.460;5.710;2022-12-01T16:59:34;7.00;99.90
33023;DHT22;19390;51.460;5.710;2022-12-01T17:02:00;6.70;99.90
33023;DHT22;19390;51.460;5.710;2022-12-01T17:04:25;6.30;99.90
33023;DHT22;19390;51.460;5.710;2022-12-01T17:06:51;6.10;99.90
33023;DHT22;19390;51.460;5.710;2022-12-01T17:09:17;6.00;99.90
33023;DHT22;19390;51.460;5.710;2022-12-01T17:11:43;5.90;99.90
33023;DHT22;19390;51.460;5.710;2022-12-01T17:14:08;6.00;99.90
33023;DHT22;19390;51.460;5.710;2022-12-01T17:16:34;5.90;99.90
33023;DHT22;19390;51.460;5.710;2022-12-01T17:19:00;5.90;99.90
33023;DHT22;19390;51.460;5.710;2022-12-01T17:21:26;5.80;99.90
33023;DHT22;19390;51.460;5.710;2022-12-01T17:23:52;5.80;99.90
33023;DHT22;19390;51.460;5.710;2022-12-01T17:26:19;5.80;99.90
33023;DHT22;19390;51.460;5.710;2022-12-01T17:28:44;5.80;99.90
33023;DHT22;19390;51.460;5.710;2022-12-01T17:31:10;5.80;99.90
33023;DHT22;19390;51.460;5.710;2022-12-01T17:33:37;5.80;99.90
33023;DHT22;19390;51.460;5.710;2022-12-01T17:36:04;5.70;99.90
33023;DHT22;19390;51.460;5.710;2022-12-01T17:38:34;5.70;99.90
33023;DHT22;19390;51.460;5.710;2022-12-01T17:41:02;5.70;99.90
33023;DHT22;19390;51.460;5.710;2022-12-01T17:43:28;5.70;99.90
33023;DHT22;19390;51.460;5.710;2022-12-01T17:46:12;5.70;99.90
33023;DHT22;19390;51.460;5.710;2022-12-01T17:48:43;5.70;99.90
33023;DHT22;19390;51.460;5.710;2022-12-01T17:51:10;5.70;99.90
33023;DHT22;19390;51.460;5.710;2022-12-01T17:53:36;5.70;99.90
33023;DHT22;19390;51.460;5.710;2022-12-01T17:56:09;5.60;99.90
33023;DHT22;19390;51.460;5.710;2022-12-01T17:58:35;5.60;99.90
33023;DHT22;19390;51.460;5.710;2022-12-01T18:01:02;5.60;99.90
33023;DHT22;19390;51.460;5.710;2022-12-01T18:03:28;5.60;99.90
33023;DHT22;19390;51.460;5.710;2022-12-01T18:05:58;5.60;99.90
33023;DHT22;19390;51.460;5.710;2022-12-01T18:08:25;5.60;99.90
33023;DHT22;19390;51.460;5.710;2022-12-01T18:10:51;5.60;99.90
33023;DHT22;19390;51.460;5.710;2022-12-01T18:13:17;5.60;99.90
33023;DHT22;19390;51.460;5.710;2022-12-01T18:15:42;5.60;99.90
33023;DHT22;19390;51.460;5.710;2022-12-01T18:18:08;5.60;99.90
33023;DHT22;19390;51.460;5.710;2022-12-01T18:20:34;5.60;99.90
33023;DHT22;19390;51.460;5.710;2022-12-01T18:23:03;5.60;99.90
33023;DHT22;19390;51.460;5.710;2022-12-01T18:25:28;5.60;99.90
33023;DHT22;19390;51.460;5.710;2022-12-01T18:27:54;5.50;99.90
33023;DHT22;19390;51.460;5.710;2022-12-01T18:30:23;5.60;99.90
33023;DHT22;19390;51.460;5.710;2022-12-01T18:32:48;5.50;99.90
33023;DHT22;19390;51.460;5.710;2022-12-01T18:35:14;5.60;99.90
33023;DHT22;19390;51.460;5.710;2022-12-01T18:37:40;5.50;99.90
33023;DHT22;19390;51.460;5.710;2022-12-01T18:40:06;5.50;99.90
33023;DHT22;19390;51.460;5.710;2022-12-01T18:42:32;5.60;99.90
33023;DHT22;19390;51.460;5.710;2022-12-01T18:44:58;5.60;99.90
33023;DHT22;19390;51.460;5.710;2022-12-01T18:47:23;5.60;99.90
33023;DHT22;19390;51.460;5.710;2022-12-01T18:49:49;5.60;99.90
33023;DHT22;19390;51.460;5.710;2022-12-01T18:52:15;5.60;99.90
33023;DHT22;19390;51.460;5.710;2022-12-01T18:54:40;5.50;99.90
33023;DHT22;19390;51.460;5.710;2022-12-01T18:57:06;5.60;99.90
33023;DHT22;19390;51.460;5.710;2022-12-01T18:59:32;5.60;99.90
33023;DHT22;19390;51.460;5.710;2022-12-01T19:01:57;5.60;99.90
33023;DHT22;19390;51.460;5.710;2022-12-01T19:04:23;5.60;99.90
33023;DHT22;19390;51.460;5.710;2022-12-01T19:06:48;5.60;99.90
33023;DHT22;19390;51.460;5.710;2022-12-01T19:09:15;5.60;99.90
33023;DHT22;19390;51.460;5.710;2022-12-01T19:11:41;5.60;99.90
33023;DHT22;19390;51.460;5.710;2022-12-01T19:14:15;5.60;99.90
33023;DHT22;19390;51.460;5.710;2022-12-01T19:16:41;5.60;99.90
33023;DHT22;19390;51.460;5.710;2022-12-01T19:19:07;5.50;99.90
33023;DHT22;19390;51.460;5.710;2022-12-01T19:21:34;5.60;99.90
33023;DHT22;19390;51.460;5.710;2022-12-01T19:24:00;5.60;99.90
33023;DHT22;19390;51.460;5.710;2022-12-01T19:26:25;5.60;99.90
33023;DHT22;19390;51.460;5.710;2022-12-01T19:28:51;5.60;99.90
33023;DHT22;19390;51.460;5.710;2022-12-01T19:31:21;5.60;99.90
33023;DHT22;19390;51.460;5.710;2022-12-01T19:33:51;5.60;99.90
33023;DHT22;19390;51.460;5.710;2022-12-01T19:36:24;5.50;99.90
33023;DHT22;19390;51.460;5.710;2022-12-01T19:38:51;5.60;99.90
33023;DHT22;19390;51.460;5.710;2022-12-01T19:41:17;5.60;99.90
33023;DHT22;19390;51.460;5.710;2022-12-01T19:43:48;5.60;99.90